Time;durP1;ratioP1;P1;durP2;ratioP2;P2;SDS_P1;SDS_P2;PMS_P1;PMS_P2;Temp;Humidity;BMP_temperature;BMP_pressure;BME280_temperature;BME280_humidity;BME280_pressure;Samples;Min_cycle;Max_cycle;Signal;HPM_P1;HPM_P2
2022/10/18 00:02:20;;;;;;;77.55;28.25;;;12.50;99.90;;;;;;4985201;28;20080;-75
2022/10/18 00:04:46;;;;;;;78.40;30.65;;;12.50;99.90;;;;;;4978335;28;20058;-75
2022/10/18 00:07:11;;;;;;;66.63;28.20;;;12.50;99.90;;;;;;4985557;28;20481;-76
2022/10/18 00:09:37;;;;;;;74.03;28.80;;;12.60;99.90;;;;;;5006655;28;20048;-76
2022/10/18 00:12:03;;;;;;;77.70;29.45;;;12.60;99.90;;;;;;4964748;28;20045;-76
2022/10/18 00:14:29;;;;;;;90.07;31.33;;;12.60;99.90;;;;;;5000476;28;20051;-76
2022/10/18 00:16:54;;;;;;;78.50;30.77;;;12.60;99.90;;;;;;4988388;28;20075;-76
2022/10/18 00:19:20;;;;;;;82.65;32.88;;;12.60;99.90;;;;;;5007554;28;20053;-76
2022/10/18 00:21:49;;;;;;;99.65;31.80;;;12.60;99.90;;;;;;4990528;28;20044;-76
2022/10/18 00:24:14;;;;;;;90.90;31.70;;;12.70;99.90;;;;;;5007966;28;21059;-76
2022/10/18 00:26:40;;;;;;;92.75;31.73;;;12.70;99.90;;;;;;5000529;28;20053;-75
2022/10/18 00:29:06;;;;;;;95.57;32.13;;;12.50;99.90;;;;;;4982575;28;20049;-76
2022/10/18 00:31:35;;;;;;;101.43;32.35;;;12.60;99.90;;;;;;4972577;28;20489;-75
2022/10/18 00:34:03;;;;;;;102.90;33.00;;;12.50;99.90;;;;;;4990759;28;20552;-76
2022/10/18 00:36:31;;;;;;;99.30;34.08;;;12.50;99.90;;;;;;4990352;28;20049;-75
2022/10/18 00:38:57;;;;;;;130.10;37.00;;;12.50;99.90;;;;;;5005413;28;20049;-75
2022/10/18 00:41:26;;;;;;;148.40;39.42;;;12.50;99.90;;;;;;5000905;28;20045;-75
2022/10/18 00:43:51;;;;;;;138.07;38.85;;;12.50;99.90;;;;;;4989979;28;20053;-76
2022/10/18 00:46:17;;;;;;;155.27;40.85;;;12.40;99.90;;;;;;4994392;28;20169;-75
2022/10/18 00:48:43;;;;;;;255.90;50.58;;;12.40;99.90;;;;;;4991093;28;21432;-76
2022/10/18 00:51:09;;;;;;;571.20;72.13;;;12.40;99.90;;;;;;4994991;28;20431;-76
2022/10/18 00:53:35;;;;;;;405.17;58.90;;;12.40;99.90;;;;;;4987875;28;20420;-75
2022/10/18 00:56:00;;;;;;;308.85;46.80;;;12.40;99.90;;;;;;5001150;28;20135;-76
2022/10/18 00:58:26;;;;;;;467.25;63.42;;;12.40;99.90;;;;;;4983925;28;20079;-75
2022/10/18 01:00:52;;;;;;;521.50;68.45;;;12.30;99.90;;;;;;4982991;28;20953;-75
2022/10/18 01:03:18;;;;;;;360.73;52.22;;;12.30;99.90;;;;;;4963292;28;20045;-76
2022/10/18 01:05:46;;;;;;;366.35;52.38;;;12.40;99.90;;;;;;4991622;28;20183;-75
2022/10/18 01:08:27;;;;;;;330.75;54.85;;;12.30;99.90;;;;;;4986067;28;20424;-75
2022/10/18 01:11:23;;;;;;;463.58;67.70;;;12.30;99.90;;;;;;4993606;28;20175;-75
2022/10/18 01:14:02;;;;;;;368.13;53.35;;;12.40;99.90;;;;;;4983986;28;20050;-75
2022/10/18 01:16:50;;;;;;;485.73;70.13;;;12.40;99.90;;;;;;4969678;28;20793;-75
2022/10/18 01:19:56;;;;;;;439.67;62.78;;;12.50;99.90;;;;;;4983281;28;20508;-75
2022/10/18 01:22:25;;;;;;;499.30;68.18;;;12.40;99.90;;;;;;4986360;28;20053;-76
2022/10/18 01:25:13;;;;;;;333.33;52.78;;;12.50;99.90;;;;;;4999763;28;21389;-75
2022/10/18 01:27:45;;;;;;;533.20;73.40;;;12.50;99.90;;;;;;4994024;28;20045;-75
2022/10/18 01:30:13;;;;;;;;;;;12.50;99.90;;;;;;4984585;28;20048;-75
2022/10/18 01:32:44;;;;;;;493.02;67.88;;;12.50;99.90;;;;;;5002050;28;19968;-76
2022/10/18 01:35:18;;;;;;;476.23;62.45;;;12.50;99.90;;;;;;4996973;28;20041;-76
2022/10/18 01:37:47;;;;;;;573.05;75.45;;;12.50;99.90;;;;;;5000376;28;20044;-75
2022/10/18 01:40:19;;;;;;;590.65;80.57;;;12.40;99.90;;;;;;4996881;28;20052;-75
2022/10/18 01:42:47;;;;;;;527.30;73.43;;;12.50;99.90;;;;;;4988695;28;20620;-75
2022/10/18 01:45:15;;;;;;;627.28;81.65;;;12.40;99.90;;;;;;4984638;28;20052;-75
2022/10/18 01:47:46;;;;;;;624.88;79.88;;;12.40;99.90;;;;;;4986666;28;20049;-75
2022/10/18 01:50:12;;;;;;;403.23;57.07;;;12.40;99.90;;;;;;4983027;28;20077;-75
2022/10/18 01:52:48;;;;;;;549.47;69.38;;;12.40;99.90;;;;;;4993251;28;21640;-75
2022/10/18 01:55:14;;;;;;;463.30;63.08;;;12.30;99.90;;;;;;4991580;28;20053;-75
2022/10/18 01:58:10;;;;;;;533.65;68.60;;;12.40;99.90;;;;;;4990174;28;20195;-75
2022/10/18 02:00:48;;;;;;;497.90;64.25;;;12.40;99.90;;;;;;4984392;28;20775;-75
2022/10/18 02:03:22;;;;;;;563.20;70.63;;;12.40;99.90;;;;;;4992379;28;20041;-75
2022/10/18 02:06:12;;;;;;;569.00;70.93;;;12.40;99.90;;;;;;5007945;28;20586;-75
2022/10/18 02:09:03;;;;;;;606.08;77.78;;;12.50;99.90;;;;;;4993811;28;20805;-75
2022/10/18 02:11:31;;;;;;;556.33;75.20;;;12.40;99.90;;;;;;5018543;28;20037;-75
2022/10/18 02:14:03;;;;;;;412.20;59.10;;;12.30;99.90;;;;;;4993352;28;20686;-75
2022/10/18 02:16:36;;;;;;;;;;;12.30;99.90;;;;;;4998455;28;20440;-75
2022/10/18 02:19:17;;;;;;;448.05;59.75;;;12.30;99.90;;;;;;4993682;28;19925;-75
2022/10/18 02:21:45;;;;;;;429.35;56.40;;;12.30;99.90;;;;;;4969049;28;20090;-75
2022/10/18 02:24:13;;;;;;;410.35;55.83;;;12.30;99.90;;;;;;4990997;28;20056;-75
2022/10/18 02:26:39;;;;;;;482.83;64.00;;;12.30;99.90;;;;;;4990927;28;20049;-75
2022/10/18 02:29:05;;;;;;;552.92;71.30;;;12.30;99.90;;;;;;4984144;28;20052;-75
2022/10/18 02:31:46;;;;;;;413.00;57.28;;;12.30;99.90;;;;;;4990305;28;20056;-75
2022/10/18 02:34:26;;;;;;;451.23;60.92;;;12.30;99.90;;;;;;4988054;28;20037;-75
2022/10/18 02:36:57;;;;;;;429.20;61.42;;;12.30;99.90;;;;;;5000361;28;20045;-75
2022/10/18 02:39:29;;;;;;;345.65;51.90;;;12.30;99.90;;;;;;4996438;28;20879;-75
2022/10/18 02:41:56;;;;;;;448.73;63.33;;;12.30;99.90;;;;;;4991880;28;20838;-75
2022/10/18 02:44:22;;;;;;;459.27;65.85;;;12.30;99.90;;;;;;4963999;28;20258;-75
2022/10/18 02:46:47;;;;;;;295.65;48.17;;;12.20;99.90;;;;;;4990947;28;20127;-75
2022/10/18 02:49:13;;;;;;;487.48;65.35;;;12.20;99.90;;;;;;4991647;28;21197;-75
2022/10/18 02:51:39;;;;;;;230.65;41.92;;;12.20;99.90;;;;;;4981807;28;20056;-75
2022/10/18 02:54:05;;;;;;;285.80;47.50;;;12.10;99.90;;;;;;4980480;28;20060;-75
2022/10/18 02:56:31;;;;;;;250.50;44.53;;;12.00;99.90;;;;;;4996494;28;20036;-75
2022/10/18 02:58:56;;;;;;;262.90;42.35;;;12.00;99.90;;;;;;4991641;28;20079;-75
2022/10/18 03:01:22;;;;;;;385.20;52.10;;;12.00;99.90;;;;;;4980378;28;20059;-75
2022/10/18 03:03:48;;;;;;;317.27;46.67;;;12.00;99.90;;;;;;4987512;28;20045;-75
2022/10/18 03:06:14;;;;;;;498.77;63.53;;;11.90;99.90;;;;;;4975331;28;20705;-75
2022/10/18 03:08:39;;;;;;;375.10;49.78;;;11.90;99.90;;;;;;4982417;28;21361;-75
2022/10/18 03:11:05;;;;;;;401.27;49.83;;;11.90;99.90;;;;;;4980625;28;20048;-75
2022/10/18 03:13:32;;;;;;;507.40;63.65;;;11.90;99.90;;;;;;4962771;28;20045;-75
2022/10/18 03:15:58;;;;;;;463.05;57.53;;;11.90;99.90;;;;;;4989570;28;20137;-75
2022/10/18 03:18:24;;;;;;;430.77;56.72;;;11.80;99.90;;;;;;4965441;28;20048;-75
2022/10/18 03:20:50;;;;;;;431.80;58.10;;;11.90;99.90;;;;;;4980048;28;20539;-75
2022/10/18 03:23:15;;;;;;;486.92;65.95;;;11.90;99.90;;;;;;4987611;28;20066;-75
2022/10/18 03:25:41;;;;;;;306.27;45.20;;;11.90;99.90;;;;;;4980451;28;20057;-75
2022/10/18 03:28:07;;;;;;;429.08;56.05;;;11.90;99.90;;;;;;4991225;28;20125;-75
2022/10/18 03:30:33;;;;;;;455.02;61.47;;;11.80;99.90;;;;;;4980942;28;20297;-75
2022/10/18 03:32:58;;;;;;;435.20;54.22;;;11.90;99.90;;;;;;4983461;28;20147;-75
2022/10/18 03:35:24;;;;;;;384.38;47.78;;;11.80;99.90;;;;;;4992181;28;20060;-75
2022/10/18 03:37:50;;;;;;;484.75;61.13;;;11.60;99.90;;;;;;4985461;28;20087;-75
2022/10/18 03:40:16;;;;;;;370.42;48.92;;;11.70;99.90;;;;;;5015040;28;20068;-75
2022/10/18 03:42:41;;;;;;;528.03;67.72;;;11.70;99.90;;;;;;4985302;28;21783;-75
2022/10/18 03:45:08;;;;;;;399.27;51.85;;;11.70;99.90;;;;;;4976810;28;20049;-75
2022/10/18 03:47:33;;;;;;;449.50;59.38;;;11.70;99.90;;;;;;4995632;28;20049;-75
2022/10/18 03:49:59;;;;;;;387.05;53.50;;;11.70;99.90;;;;;;4983158;28;20056;-74
2022/10/18 03:52:25;;;;;;;532.80;69.45;;;11.70;99.90;;;;;;4974980;28;20060;-75
2022/10/18 03:54:50;;;;;;;397.20;53.67;;;11.70;99.90;;;;;;4992380;28;20172;-75
2022/10/18 03:57:16;;;;;;;524.58;64.95;;;11.70;99.90;;;;;;4985320;28;20056;-75
2022/10/18 03:59:42;;;;;;;579.03;72.30;;;11.60;99.90;;;;;;5010760;28;20359;-75
2022/10/18 04:02:08;;;;;;;593.53;75.93;;;11.60;99.90;;;;;;4978856;28;20076;-75
2022/10/18 04:04:33;;;;;;;601.33;79.80;;;11.60;99.90;;;;;;4990055;28;20049;-75
2022/10/18 04:06:59;;;;;;;303.45;46.63;;;11.60;99.90;;;;;;4960780;28;20102;-75
2022/10/18 04:09:25;;;;;;;426.17;59.85;;;11.60;99.90;;;;;;4981580;28;20041;-75
2022/10/18 04:11:50;;;;;;;435.80;57.30;;;11.60;99.90;;;;;;5000145;28;20145;-75
2022/10/18 04:14:16;;;;;;;432.73;54.00;;;11.50;99.90;;;;;;4989802;28;20076;-75
2022/10/18 04:16:42;;;;;;;524.80;62.22;;;11.50;99.90;;;;;;4994114;28;20835;-75
2022/10/18 04:19:07;;;;;;;505.20;61.75;;;11.50;99.90;;;;;;5002927;28;20045;-75
2022/10/18 04:21:33;;;;;;;464.25;59.58;;;11.40;99.90;;;;;;4992034;28;21251;-75
2022/10/18 04:23:59;;;;;;;363.13;42.15;;;11.40;99.90;;;;;;4992080;28;20041;-75
2022/10/18 04:26:24;;;;;;;455.52;50.67;;;11.40;99.90;;;;;;4980276;28;20060;-75
2022/10/18 04:28:50;;;;;;;453.27;53.28;;;11.30;99.90;;;;;;5005987;28;20056;-75
2022/10/18 04:31:16;;;;;;;403.70;48.92;;;11.30;99.90;;;;;;4992846;28;20113;-75
2022/10/18 04:33:41;;;;;;;358.88;47.58;;;11.30;99.90;;;;;;4982626;28;20052;-75
2022/10/18 04:36:07;;;;;;;475.13;57.78;;;11.30;99.90;;;;;;4989291;28;20056;-75
2022/10/18 04:38:33;;;;;;;377.05;47.97;;;11.20;99.90;;;;;;4980668;28;20048;-75
2022/10/18 04:40:59;;;;;;;420.63;54.72;;;11.20;99.90;;;;;;4990997;28;20585;-75
2022/10/18 04:43:24;;;;;;;287.10;41.30;;;11.20;99.90;;;;;;4964353;28;20172;-75
2022/10/18 04:45:50;;;;;;;283.52;40.53;;;11.20;99.90;;;;;;4992203;28;20047;-75
2022/10/18 04:48:19;;;;;;;352.30;45.25;;;11.10;99.90;;;;;;4993416;28;20538;-75
2022/10/18 04:50:48;;;;;;;283.15;40.45;;;11.20;99.90;;;;;;5000512;28;20087;-75
2022/10/18 04:53:15;;;;;;;290.92;42.67;;;10.90;99.90;;;;;;4995276;28;20094;-75
2022/10/18 04:55:45;;;;;;;334.15;45.78;;;10.90;99.90;;;;;;4994620;28;20504;-75
2022/10/18 04:58:11;;;;;;;317.45;44.65;;;11.00;99.90;;;;;;4996250;28;21133;-75
2022/10/18 05:00:38;;;;;;;264.90;38.05;;;11.00;99.90;;;;;;4989178;28;20068;-75
2022/10/18 05:03:04;;;;;;;327.35;41.60;;;10.90;99.90;;;;;;4978401;28;20063;-75
2022/10/18 05:05:29;;;;;;;313.30;41.78;;;10.90;99.90;;;;;;5001364;28;20532;-75
2022/10/18 05:07:55;;;;;;;328.15;43.58;;;10.90;99.90;;;;;;4999039;28;20053;-75
2022/10/18 05:10:21;;;;;;;261.20;38.55;;;10.80;99.90;;;;;;4972347;28;20116;-75
2022/10/18 05:12:46;;;;;;;308.17;39.60;;;10.90;99.90;;;;;;4983070;28;21716;-75
2022/10/18 05:15:12;;;;;;;357.60;41.33;;;10.90;99.90;;;;;;4999642;28;20075;-75
2022/10/18 05:17:38;;;;;;;483.52;57.03;;;10.80;99.90;;;;;;4984921;28;20060;-75
2022/10/18 05:20:04;;;;;;;450.73;55.58;;;10.80;99.90;;;;;;4980764;28;20045;-75
2022/10/18 05:22:29;;;;;;;466.52;47.53;;;10.80;99.90;;;;;;4987109;28;20064;-75
2022/10/18 05:24:55;;;;;;;509.17;52.30;;;10.70;99.90;;;;;;4977125;28;20173;-75
2022/10/18 05:27:20;;;;;;;391.63;42.78;;;10.70;99.90;;;;;;4960354;28;20048;-75
2022/10/18 05:29:46;;;;;;;506.83;56.50;;;10.70;99.90;;;;;;5007080;28;20067;-75
2022/10/18 05:32:12;;;;;;;553.47;58.90;;;10.70;99.90;;;;;;4997070;28;20063;-75
2022/10/18 05:34:37;;;;;;;381.65;45.83;;;10.60;99.90;;;;;;5002670;28;20047;-75
2022/10/18 05:37:03;;;;;;;412.55;49.00;;;10.60;99.90;;;;;;4985951;28;20048;-74
2022/10/18 05:39:29;;;;;;;421.55;50.10;;;10.60;99.90;;;;;;4998944;28;20134;-75
2022/10/18 05:41:54;;;;;;;438.77;50.95;;;10.50;99.90;;;;;;4941638;28;20096;-75
2022/10/18 05:44:20;;;;;;;525.08;60.78;;;10.30;99.90;;;;;;4980573;28;20084;-75
2022/10/18 05:46:46;;;;;;;346.33;44.05;;;10.30;99.90;;;;;;4991736;28;20083;-75
2022/10/18 05:49:12;;;;;;;277.60;33.53;;;10.30;99.90;;;;;;4982348;28;21005;-75
2022/10/18 05:51:37;;;;;;;334.80;36.97;;;10.10;99.90;;;;;;4989224;28;20067;-75
2022/10/18 05:54:03;;;;;;;200.77;26.95;;;10.00;99.90;;;;;;4981351;28;20048;-75
2022/10/18 05:56:29;;;;;;;449.75;40.67;;;10.00;99.90;;;;;;4983429;28;20083;-75
2022/10/18 05:58:54;;;;;;;351.27;36.90;;;10.00;99.90;;;;;;5002495;28;21145;-75
2022/10/18 06:01:20;;;;;;;284.15;29.77;;;10.00;99.90;;;;;;4946643;28;20424;-75
2022/10/18 06:03:46;;;;;;;362.48;37.40;;;10.00;99.90;;;;;;4975749;28;20145;-75
2022/10/18 06:06:13;;;;;;;408.60;42.78;;;9.90;99.90;;;;;;4992721;28;21583;-75
2022/10/18 06:08:40;;;;;;;381.10;41.13;;;9.90;99.90;;;;;;5007603;28;20079;-75
2022/10/18 06:11:15;;;;;;;359.42;40.22;;;10.00;99.90;;;;;;4973989;28;20037;-75
2022/10/18 06:13:46;;;;;;;322.90;33.87;;;9.80;99.90;;;;;;4989510;28;20044;-74
2022/10/18 06:16:13;;;;;;;328.60;32.10;;;9.80;99.90;;;;;;4983139;28;20068;-75
2022/10/18 06:18:40;;;;;;;318.30;34.17;;;9.80;99.90;;;;;;5002685;28;20060;-75
2022/10/18 06:21:07;;;;;;;301.07;30.80;;;9.90;99.90;;;;;;4973408;28;20053;-74
2022/10/18 06:23:33;;;;;;;266.42;28.27;;;9.80;99.90;;;;;;4992723;28;20703;-75
2022/10/18 06:26:04;;;;;;;305.20;33.22;;;9.70;99.90;;;;;;4991991;28;20127;-75
2022/10/18 06:28:30;;;;;;;259.95;29.15;;;9.70;99.90;;;;;;4985330;28;20168;-75
2022/10/18 06:30:56;;;;;;;217.52;26.63;;;9.70;99.90;;;;;;4982394;28;20056;-75
2022/10/18 06:33:22;;;;;;;185.00;23.98;;;9.60;99.90;;;;;;4978068;28;21003;-75
2022/10/18 06:36:16;;;;;;;263.38;30.23;;;9.70;99.90;;;;;;4979963;28;20135;-74
2022/10/18 06:38:42;;;;;;;126.60;20.90;;;9.60;99.90;;;;;;4961102;28;20057;-75
2022/10/18 06:41:08;;;;;;;159.93;21.13;;;9.50;99.90;;;;;;4979395;28;20812;-75
2022/10/18 06:43:34;;;;;;;99.28;19.13;;;9.30;99.90;;;;;;4978476;28;20140;-74
2022/10/18 06:46:05;;;;;;;173.33;26.60;;;9.40;99.90;;;;;;4965293;28;20184;-75
2022/10/18 06:48:32;;;;;;;274.52;36.83;;;9.50;99.90;;;;;;4972158;28;20972;-75
2022/10/18 06:51:00;;;;;;;304.17;38.20;;;9.40;99.90;;;;;;4981042;28;20142;-75
2022/10/18 06:53:31;;;;;;;289.92;36.55;;;9.40;99.90;;;;;;4981520;28;21094;-74
2022/10/18 06:56:12;;;;;;;164.38;29.38;;;9.40;99.90;;;;;;4981436;28;21081;-74
2022/10/18 06:58:38;;;;;;;152.60;26.90;;;9.40;99.90;;;;;;4984207;28;20586;-74
2022/10/18 07:01:11;;;;;;;180.15;30.27;;;9.40;99.90;;;;;;4982027;28;20278;-74
2022/10/18 07:03:37;;;;;;;83.70;18.63;;;9.40;99.90;;;;;;4978808;28;20052;-75
2022/10/18 07:06:05;;;;;;;119.70;20.23;;;9.40;99.90;;;;;;4980693;28;20116;-75
2022/10/18 07:08:32;;;;;;;138.50;24.00;;;9.30;99.90;;;;;;5001901;28;20183;-74
2022/10/18 07:10:58;;;;;;;162.30;27.27;;;9.30;99.90;;;;;;4993763;28;20134;-74
2022/10/18 07:13:26;;;;;;;80.40;18.90;;;9.30;99.90;;;;;;4990010;28;20123;-74
2022/10/18 07:16:10;;;;;;;29.70;14.57;;;9.20;99.90;;;;;;4994817;28;20147;-74
2022/10/18 07:18:38;;;;;;;107.90;22.80;;;9.30;99.90;;;;;;5020816;28;20851;-74
2022/10/18 07:21:15;;;;;;;113.93;24.30;;;9.30;99.90;;;;;;5011783;28;20059;-74
2022/10/18 07:23:43;;;;;;;82.75;18.95;;;9.10;99.90;;;;;;5008655;28;20057;-74
2022/10/18 07:26:14;;;;;;;83.10;18.38;;;9.20;99.90;;;;;;5003138;28;20496;-74
2022/10/18 07:28:40;;;;;;;46.67;15.85;;;9.30;99.90;;;;;;5008281;28;20041;-74
2022/10/18 07:31:07;;;;;;;56.72;16.92;;;9.30;99.90;;;;;;5009514;28;20102;-74
2022/10/18 07:33:34;;;;;;;93.00;19.97;;;9.20;99.90;;;;;;4993126;28;20620;-75
2022/10/18 07:36:02;;;;;;;73.67;17.83;;;9.30;99.90;;;;;;5009404;28;20087;-74
2022/10/18 07:38:27;;;;;;;61.58;16.50;;;9.30;99.90;;;;;;4999355;28;20505;-74
2022/10/18 07:40:57;;;;;;;56.93;16.03;;;9.20;99.90;;;;;;5012057;28;20053;-74
2022/10/18 07:43:23;;;;;;;42.17;13.57;;;9.30;99.90;;;;;;5006015;28;20052;-74
2022/10/18 07:45:54;;;;;;;54.73;16.33;;;9.30;99.90;;;;;;5010701;28;20045;-74
2022/10/18 07:48:19;;;;;;;72.40;18.43;;;9.40;99.90;;;;;;5000875;28;20060;-74
2022/10/18 07:50:45;;;;;;;57.67;17.40;;;9.50;99.90;;;;;;5007131;28;20048;-74
2022/10/18 07:53:11;;;;;;;35.60;14.53;;;9.70;99.90;;;;;;5012721;28;20381;-74
2022/10/18 07:55:36;;;;;;;35.47;15.30;;;9.60;99.90;;;;;;5004905;28;21854;-74
2022/10/18 07:58:02;;;;;;;59.30;17.97;;;9.70;99.90;;;;;;4960615;28;20048;-74
2022/10/18 08:00:28;;;;;;;35.90;15.33;;;9.80;99.90;;;;;;5008390;28;20142;-74
2022/10/18 08:02:58;;;;;;;26.33;14.23;;;9.90;99.90;;;;;;5003948;28;20389;-74
2022/10/18 08:05:25;;;;;;;30.97;14.33;;;9.90;99.90;;;;;;5011041;28;20155;-74
2022/10/18 08:07:52;;;;;;;35.70;16.53;;;10.00;99.90;;;;;;4978584;28;20060;-74
2022/10/18 08:10:18;;;;;;;27.50;13.93;;;10.00;99.90;;;;;;5011303;28;20756;-74
2022/10/18 08:12:44;;;;;;;27.67;13.48;;;10.10;99.90;;;;;;5006862;28;20876;-74
2022/10/18 08:15:10;;;;;;;30.67;14.25;;;10.20;99.90;;;;;;5014700;28;20900;-74
2022/10/18 08:17:35;;;;;;;33.38;13.45;;;10.40;99.90;;;;;;5000921;28;20060;-74
2022/10/18 08:20:01;;;;;;;28.42;12.68;;;10.40;99.90;;;;;;5016005;28;20056;-74
2022/10/18 08:22:27;;;;;;;41.20;15.25;;;10.60;99.90;;;;;;5011183;28;20060;-74
2022/10/18 08:24:52;;;;;;;30.10;13.77;;;10.70;99.90;;;;;;5009256;28;20057;-74
2022/10/18 08:27:18;;;;;;;29.88;13.18;;;10.70;99.90;;;;;;4984808;28;20061;-75
2022/10/18 08:29:44;;;;;;;28.27;12.52;;;10.80;99.90;;;;;;5014184;28;20045;-74
2022/10/18 08:32:09;;;;;;;23.25;12.52;;;11.00;99.90;;;;;;5008882;28;20591;-74
2022/10/18 08:34:35;;;;;;;25.33;11.15;;;11.00;99.90;;;;;;5012756;28;20061;-74
2022/10/18 08:37:01;;;;;;;30.33;12.70;;;11.10;99.90;;;;;;5004679;28;20499;-74
2022/10/18 08:39:28;;;;;;;20.92;11.05;;;11.30;99.90;;;;;;5014457;28;20064;-74
2022/10/18 08:42:32;;;;;;;29.33;10.55;;;11.40;99.90;;;;;;5010973;28;20059;-74
2022/10/18 08:44:58;;;;;;;24.90;10.15;;;11.50;99.90;;;;;;4994448;28;20041;-75
2022/10/18 08:47:35;;;;;;;27.88;8.90;;;11.70;99.90;;;;;;5000295;28;20048;-75
2022/10/18 08:50:06;;;;;;;25.20;7.97;;;11.70;99.90;;;;;;5010810;28;20152;-74
2022/10/18 08:52:42;;;;;;;22.30;7.90;;;11.90;99.90;;;;;;5008027;28;20395;-75
2022/10/18 08:55:27;;;;;;;20.45;7.68;;;11.90;99.90;;;;;;5013413;28;20053;-75
2022/10/18 08:57:56;;;;;;;21.63;6.82;;;12.10;99.90;;;;;;4999489;28;20798;-74
2022/10/18 09:00:24;;;;;;;21.98;5.55;;;12.20;99.90;;;;;;5012466;28;20080;-75
2022/10/18 09:03:12;;;;;;;18.52;4.78;;;12.40;99.90;;;;;;5003697;28;20049;-75
2022/10/18 09:05:46;;;;;;;16.55;5.55;;;12.50;99.90;;;;;;4990844;28;21194;-75
2022/10/18 09:08:37;;;;;;;21.08;4.75;;;12.50;99.90;;;;;;4996674;28;20058;-75
2022/10/18 09:11:23;;;;;;;21.25;4.75;;;12.70;99.90;;;;;;5009039;28;20703;-74
2022/10/18 09:14:18;;;;;;;15.52;4.75;;;12.80;99.90;;;;;;5004989;28;20045;-75
2022/10/18 09:17:05;;;;;;;25.55;4.80;;;12.90;99.90;;;;;;4993037;28;20135;-75
2022/10/18 09:20:13;;;;;;;18.65;4.15;;;13.20;99.90;;;;;;5006521;28;20155;-75
2022/10/18 09:23:31;;;;;;;16.88;3.60;;;13.20;99.90;;;;;;4980833;28;20068;-75
2022/10/18 09:26:13;;;;;;;15.85;3.13;;;13.40;99.90;;;;;;4959520;28;20167;-75
2022/10/18 09:29:03;;;;;;;13.52;3.33;;;13.60;99.90;;;;;;5001005;28;20041;-76
2022/10/18 09:31:38;;;;;;;17.27;3.50;;;13.50;99.90;;;;;;5006095;28;20158;-77
2022/10/18 09:34:11;;;;;;;16.30;3.08;;;13.80;99.90;;;;;;5010958;28;20836;-75
2022/10/18 09:36:38;;;;;;;17.60;3.28;;;14.10;99.90;;;;;;4999660;28;20584;-75
2022/10/18 09:39:22;;;;;;;13.98;3.22;;;14.40;99.90;;;;;;5011745;28;20049;-75
2022/10/18 09:42:02;;;;;;;16.13;3.88;;;14.60;99.90;;;;;;5008193;28;20057;-75
2022/10/18 09:44:34;;;;;;;19.90;4.00;;;14.60;99.90;;;;;;5005971;28;20051;-74
2022/10/18 09:47:15;;;;;;;16.67;3.58;;;14.40;99.90;;;;;;4996684;28;20508;-75
2022/10/18 09:50:02;;;;;;;15.80;2.57;;;14.30;99.90;;;;;;4995325;28;20056;-75
2022/10/18 09:52:37;;;;;;;23.55;4.03;;;14.30;99.90;;;;;;5008971;28;20511;-75
2022/10/18 09:55:12;;;;;;;15.90;3.50;;;14.30;99.90;;;;;;5007312;28;20052;-74
2022/10/18 09:57:48;;;;;;;19.45;3.55;;;14.40;99.90;;;;;;5000650;28;20112;-76
2022/10/18 10:00:24;;;;;;;13.60;2.92;;;14.40;99.90;;;;;;5014808;28;20045;-75
2022/10/18 10:02:50;;;;;;;16.83;2.88;;;14.50;99.90;;;;;;5016644;28;20503;-75
2022/10/18 10:05:16;;;;;;;21.83;3.28;;;14.40;99.90;;;;;;5004965;28;20059;-75
2022/10/18 10:07:48;;;;;;;10.70;2.25;;;14.40;99.90;;;;;;4969566;28;20744;-75
2022/10/18 10:10:22;;;;;;;17.35;2.65;;;14.50;99.90;;;;;;4991296;28;20500;-76
2022/10/18 10:13:00;;;;;;;13.95;2.88;;;14.60;99.90;;;;;;5015148;28;20110;-76
2022/10/18 10:15:26;;;;;;;12.13;1.90;;;14.50;99.90;;;;;;4933866;28;20099;-76
2022/10/18 10:18:19;;;;;;;15.30;2.38;;;14.50;99.90;;;;;;4975640;28;20049;-76
2022/10/18 10:20:51;;;;;;;17.92;3.05;;;14.50;99.90;;;;;;4972901;28;20052;-75
2022/10/18 10:23:31;;;;;;;15.25;3.00;;;14.60;99.90;;;;;;4977886;28;20084;-75
2022/10/18 10:26:24;;;;;;;11.73;2.58;;;14.80;99.90;;;;;;4980188;28;20053;-75
2022/10/18 10:28:51;;;;;;;19.05;3.25;;;15.00;99.90;;;;;;4969827;28;20080;-76
2022/10/18 10:31:28;;;;;;;19.95;2.53;;;15.00;99.90;;;;;;4980072;28;20029;-75
2022/10/18 10:34:04;;;;;;;17.05;2.92;;;14.90;99.90;;;;;;4978821;28;20051;-74
2022/10/18 10:36:32;;;;;;;15.55;2.35;;;15.00;99.90;;;;;;4902736;28;20550;-75
2022/10/18 10:39:09;;;;;;;11.50;2.58;;;14.90;99.90;;;;;;4998870;28;21124;-75
2022/10/18 10:41:38;;;;;;;16.85;2.50;;;14.70;99.90;;;;;;4998566;28;20945;-74
2022/10/18 10:44:16;;;;;;;13.45;2.28;;;14.70;99.90;;;;;;4998210;28;20045;-75
2022/10/18 10:46:42;;;;;;;15.80;2.42;;;14.60;99.90;;;;;;5017001;28;20570;-75
2022/10/18 10:49:38;;;;;;;15.63;2.50;;;14.70;99.90;;;;;;5014074;28;20045;-75
2022/10/18 10:52:05;;;;;;;20.88;2.88;;;14.80;99.90;;;;;;4986035;28;20700;-75
2022/10/18 10:54:35;;;;;;;13.45;2.15;;;14.90;99.90;;;;;;4963857;28;20134;-75
2022/10/18 10:57:11;;;;;;;10.70;1.98;;;15.10;99.90;;;;;;4987401;28;20135;-74
2022/10/18 10:59:51;;;;;;;13.43;2.30;;;15.00;99.90;;;;;;4963490;28;20187;-75
2022/10/18 11:02:24;;;;;;;15.73;2.80;;;15.00;99.90;;;;;;4981314;28;20053;-74
2022/10/18 11:04:52;;;;;;;15.77;2.75;;;14.80;99.90;;;;;;4980404;28;20081;-74
2022/10/18 11:07:34;;;;;;;16.88;2.60;;;14.80;99.90;;;;;;4983008;28;20052;-74
2022/10/18 11:10:09;;;;;;;13.80;2.22;;;14.70;99.90;;;;;;5006670;28;20095;-75
2022/10/18 11:12:53;;;;;;;12.57;2.30;;;14.80;99.90;;;;;;4987498;28;21050;-75
2022/10/18 11:15:29;;;;;;;13.38;2.33;;;14.90;99.90;;;;;;5010156;28;20056;-75
2022/10/18 11:18:16;;;;;;;13.93;2.70;;;15.10;99.90;;;;;;5008191;28;20063;-75
2022/10/18 11:21:10;;;;;;;8.80;1.95;;;15.20;99.90;;;;;;5000276;28;20041;-75
2022/10/18 11:23:38;;;;;;;12.85;2.30;;;15.40;99.90;;;;;;5000319;28;20049;-75
2022/10/18 11:26:03;;;;;;;14.27;3.10;;;15.60;99.90;;;;;;5004863;28;21868;-73
2022/10/18 11:28:35;;;;;;;13.93;2.35;;;15.60;99.90;;;;;;4992373;28;20242;-76
2022/10/18 11:31:07;;;;;;;12.05;2.13;;;15.70;99.90;;;;;;5005598;28;20448;-73
2022/10/18 11:33:52;;;;;;;10.02;2.20;;;15.40;99.90;;;;;;4986483;28;20617;-73
2022/10/18 11:36:33;;;;;;;11.13;2.15;;;15.50;99.90;;;;;;4992466;28;20686;-75
2022/10/18 11:39:08;;;;;;;12.13;1.92;;;15.50;99.90;;;;;;5009604;28;20091;-75
2022/10/18 11:41:40;;;;;;;12.05;2.20;;;15.50;99.90;;;;;;4990388;28;21148;-75
2022/10/18 11:44:16;;;;;;;11.93;2.55;;;15.30;99.90;;;;;;5006238;28;20060;-75
2022/10/18 11:46:57;;;;;;;13.07;2.47;;;15.20;99.90;;;;;;4992173;28;20045;-74
2022/10/18 11:49:34;;;;;;;13.93;2.00;;;15.10;99.90;;;;;;5021967;28;20071;-75
2022/10/18 11:52:38;;;;;;;13.48;2.30;;;15.00;99.90;;;;;;4988055;28;21589;-74
2022/10/18 11:55:30;;;;;;;13.00;2.65;;;14.90;99.90;;;;;;4978972;28;20748;-74
2022/10/18 11:58:13;;;;;;;8.20;1.90;;;15.00;99.90;;;;;;5000456;28;20043;-75
2022/10/18 12:00:47;;;;;;;13.40;2.30;;;15.10;99.90;;;;;;4993591;28;20053;-73
2022/10/18 12:03:25;;;;;;;13.68;2.35;;;15.30;99.90;;;;;;5019522;28;20041;-74
2022/10/18 12:05:54;;;;;;;12.57;2.28;;;15.40;99.90;;;;;;5022688;28;20060;-74
2022/10/18 12:08:46;;;;;;;10.95;2.00;;;15.40;99.90;;;;;;5005795;28;20056;-74
2022/10/18 12:11:18;;;;;;;11.82;2.30;;;15.70;99.90;;;;;;5011999;28;20094;-74
2022/10/18 12:14:13;;;;;;;10.13;2.10;;;15.90;99.90;;;;;;5021366;28;20087;-75
2022/10/18 12:16:41;;;;;;;9.55;2.05;;;16.00;99.90;;;;;;5006747;28;20041;-74
2022/10/18 12:19:17;;;;;;;8.80;2.20;;;15.90;99.90;;;;;;5011637;28;20642;-74
2022/10/18 12:21:43;;;;;;;11.48;2.08;;;15.80;99.90;;;;;;5019361;28;20429;-74
2022/10/18 12:24:17;;;;;;;13.45;2.53;;;15.70;99.90;;;;;;5018865;28;20045;-74
2022/10/18 12:26:47;;;;;;;11.48;2.15;;;15.70;99.90;;;;;;5012754;28;20048;-73
2022/10/18 12:29:37;;;;;;;10.57;2.10;;;15.70;99.90;;;;;;5019070;28;20073;-74
2022/10/18 12:32:11;;;;;;;12.52;2.08;;;15.60;99.90;;;;;;5010448;28;20088;-74
2022/10/18 12:34:51;;;;;;;13.68;1.95;;;15.60;99.90;;;;;;5013751;28;20068;-73
2022/10/18 12:37:35;;;;;;;11.80;2.25;;;15.20;99.90;;;;;;4998072;28;20511;-74
2022/10/18 12:40:09;;;;;;;9.52;1.77;;;15.00;99.90;;;;;;5005428;28;20477;-72
2022/10/18 12:42:41;;;;;;;12.15;2.10;;;14.90;99.90;;;;;;4993905;28;20041;-74
2022/10/18 12:45:27;;;;;;;20.13;2.50;;;14.90;99.90;;;;;;4996284;28;20049;-74
2022/10/18 12:47:57;;;;;;;14.43;2.33;;;14.90;99.90;;;;;;5013507;28;20045;-74
2022/10/18 12:50:35;;;;;;;13.93;2.25;;;14.90;99.90;;;;;;4988767;28;20036;-74